createdAt,value
2019-03-21T00:02:16.607Z,99.90
2019-03-21T00:04:48.095Z,99.90
2019-03-21T00:07:17.825Z,99.90
2019-03-21T00:09:50.600Z,99.90
2019-03-21T00:12:20.286Z,99.90
2019-03-21T00:14:53.159Z,99.90
2019-03-21T00:17:26.094Z,99.90
2019-03-21T00:19:55.729Z,99.90
2019-03-21T00:22:25.417Z,99.90
2019-03-21T00:24:55.163Z,99.90
2019-03-21T00:27:24.925Z,99.90
2019-03-21T00:29:54.596Z,99.90
2019-03-21T00:32:24.452Z,99.90
2019-03-21T00:34:54.031Z,99.90
2019-03-21T00:37:23.879Z,99.90
2019-03-21T00:39:53.455Z,99.90
2019-03-21T00:42:23.282Z,99.90
2019-03-21T00:44:52.872Z,99.90
2019-03-21T00:47:22.480Z,99.90
2019-03-21T00:49:52.232Z,99.90
2019-03-21T00:52:22.154Z,99.90
2019-03-21T00:54:51.729Z,99.90
2019-03-21T00:57:21.446Z,99.90
2019-03-21T00:59:51.098Z,99.90
2019-03-21T01:02:20.904Z,99.90
2019-03-21T01:04:50.605Z,99.90
2019-03-21T01:07:20.366Z,99.90
2019-03-21T01:09:49.964Z,99.90
2019-03-21T01:12:19.876Z,99.90
2019-03-21T01:14:49.486Z,99.90
2019-03-21T01:17:19.226Z,99.90
2019-03-21T01:19:48.951Z,99.90
2019-03-21T01:22:18.636Z,99.90
2019-03-21T01:24:48.257Z,99.90
2019-03-21T01:27:18.145Z,99.90
2019-03-21T01:29:47.801Z,99.90
2019-03-21T01:32:17.475Z,99.90
2019-03-21T01:34:47.097Z,99.90
2019-03-21T01:37:16.690Z,99.90
2019-03-21T01:39:47.481Z,99.90
2019-03-21T01:42:17.279Z,99.90
2019-03-21T01:44:46.987Z,99.90
2019-03-21T01:47:16.781Z,99.90
2019-03-21T01:49:46.377Z,99.90
2019-03-21T01:52:16.207Z,99.90
2019-03-21T01:54:45.801Z,99.90
2019-03-21T01:57:15.599Z,99.90
2019-03-21T01:59:45.214Z,99.90
2019-03-21T02:02:15.025Z,99.90
2019-03-21T02:04:44.716Z,99.90
2019-03-21T02:07:14.790Z,99.90
2019-03-21T02:09:45.589Z,99.90
2019-03-21T02:12:15.319Z,99.90
2019-03-21T02:14:52.056Z,99.90
2019-03-21T02:17:16.432Z,99.90
2019-03-21T02:19:46.064Z,99.90
2019-03-21T02:22:15.772Z,99.90
2019-03-21T02:24:45.495Z,99.90
2019-03-21T02:27:15.327Z,99.90
2019-03-21T02:29:44.955Z,99.90
2019-03-21T02:32:14.539Z,99.90
2019-03-21T02:34:44.177Z,99.90
2019-03-21T02:37:14.025Z,99.90
2019-03-21T02:39:58.218Z,99.90
2019-03-21T02:42:15.237Z,99.90
2019-03-21T02:44:46.485Z,99.90
2019-03-21T02:47:16.554Z,99.90
2019-03-21T02:49:46.158Z,99.90
2019-03-21T02:52:15.732Z,99.90
2019-03-21T02:54:45.354Z,99.90
2019-03-21T02:57:14.907Z,99.90
2019-03-21T02:59:44.610Z,99.90
2019-03-21T03:02:14.317Z,99.90
2019-03-21T03:04:44.095Z,99.90
2019-03-21T03:07:13.738Z,99.90
2019-03-21T03:09:43.509Z,99.90
2019-03-21T03:12:13.156Z,99.90
2019-03-21T03:14:43.150Z,99.90
2019-03-21T03:17:12.772Z,99.90
2019-03-21T03:19:42.412Z,99.90
2019-03-21T03:22:11.996Z,99.90
2019-03-21T03:24:41.793Z,99.90
2019-03-21T03:27:11.380Z,99.90
2019-03-21T03:29:42.267Z,99.90
2019-03-21T03:32:11.891Z,99.90
2019-03-21T03:34:41.713Z,99.90
2019-03-21T03:37:11.328Z,99.90
2019-03-21T03:39:41.109Z,99.90
2019-03-21T03:42:11.110Z,99.90
2019-03-21T03:44:40.940Z,99.90
2019-03-21T03:47:10.714Z,99.90
2019-03-21T03:49:40.305Z,99.90
2019-03-21T03:52:10.037Z,99.90
2019-03-21T03:54:39.801Z,99.90
2019-03-21T03:57:09.565Z,99.90
2019-03-21T03:59:39.705Z,99.90
2019-03-21T04:02:09.309Z,99.90
2019-03-21T04:04:39.071Z,99.90
2019-03-21T04:07:08.772Z,99.90
2019-03-21T04:09:39.011Z,99.90
2019-03-21T04:12:08.775Z,99.90
2019-03-21T04:14:38.444Z,99.90
2019-03-21T04:17:08.157Z,99.90
2019-03-21T04:19:37.869Z,99.90
2019-03-21T04:22:07.575Z,99.90
2019-03-21T04:24:37.203Z,99.90
2019-03-21T04:27:07.021Z,99.90
2019-03-21T04:29:36.689Z,99.90
2019-03-21T04:32:06.431Z,99.90
2019-03-21T04:34:36.048Z,99.90
2019-03-21T04:37:05.732Z,99.90
2019-03-21T04:39:35.461Z,99.90
2019-03-21T04:42:05.242Z,99.90
2019-03-21T04:44:34.975Z,99.90
2019-03-21T04:47:05.089Z,99.90
2019-03-21T04:49:34.835Z,99.90
2019-03-21T04:52:04.542Z,99.90
2019-03-21T04:54:34.259Z,99.90
2019-03-21T04:57:03.976Z,99.90
2019-03-21T04:59:33.750Z,99.90
2019-03-21T05:02:03.434Z,99.90
2019-03-21T05:04:33.238Z,99.90
2019-03-21T05:07:02.910Z,99.90
2019-03-21T05:09:32.551Z,99.90
2019-03-21T05:12:02.262Z,99.90
2019-03-21T05:14:32.136Z,99.90
2019-03-21T05:17:01.880Z,99.90
2019-03-21T05:19:31.783Z,99.90
2019-03-21T05:22:01.468Z,99.90
2019-03-21T05:24:31.176Z,99.90
2019-03-21T05:27:00.833Z,99.90
2019-03-21T05:29:30.630Z,99.90
2019-03-21T05:32:00.285Z,99.90
2019-03-21T05:34:30.096Z,99.90
2019-03-21T05:36:59.843Z,99.90
2019-03-21T05:39:29.539Z,99.90
2019-03-21T05:41:59.488Z,99.90
2019-03-21T05:44:32.431Z,99.90
2019-03-21T05:47:02.049Z,99.90
2019-03-21T05:49:31.787Z,99.90
2019-03-21T05:52:01.502Z,99.90
2019-03-21T05:54:31.362Z,99.90
2019-03-21T05:57:01.031Z,99.90
2019-03-21T05:59:30.943Z,99.90
2019-03-21T06:02:00.602Z,99.90
2019-03-21T06:04:30.265Z,99.90
2019-03-21T06:07:02.966Z,99.90
2019-03-21T06:09:32.606Z,99.90
2019-03-21T06:12:04.246Z,99.90
2019-03-21T06:14:36.997Z,99.90
2019-03-21T06:17:06.689Z,99.90
2019-03-21T06:19:39.395Z,99.90
2019-03-21T06:22:12.304Z,99.90
2019-03-21T06:24:43.122Z,99.90
2019-03-21T06:27:15.877Z,99.90
2019-03-21T06:29:45.482Z,99.90
2019-03-21T06:32:15.148Z,99.90
2019-03-21T06:34:45.100Z,99.90
2019-03-21T06:37:14.772Z,99.90
2019-03-21T06:39:44.600Z,99.90
2019-03-21T06:42:14.280Z,99.90
2019-03-21T06:44:43.998Z,99.90
2019-03-21T06:47:13.582Z,99.90
2019-03-21T06:49:43.276Z,99.90
2019-03-21T06:52:13.011Z,99.90
2019-03-21T06:54:42.804Z,99.90
2019-03-21T06:57:12.521Z,99.90
2019-03-21T06:59:42.219Z,99.90
2019-03-21T07:02:11.900Z,99.90
2019-03-21T07:04:41.735Z,99.90
2019-03-21T07:07:11.347Z,99.90
2019-03-21T07:09:41.227Z,99.90
2019-03-21T07:12:10.947Z,99.90
2019-03-21T07:14:40.595Z,99.90
2019-03-21T07:17:10.186Z,99.90
2019-03-21T07:19:39.887Z,99.90
2019-03-21T07:22:12.253Z,99.90
2019-03-21T07:24:41.121Z,99.90
2019-03-21T07:27:10.932Z,99.90
2019-03-21T07:29:40.829Z,99.90
2019-03-21T07:32:10.555Z,99.90
2019-03-21T07:34:40.227Z,99.90
2019-03-21T07:37:09.908Z,99.90
2019-03-21T07:39:39.606Z,99.90
2019-03-21T07:42:09.267Z,99.90
2019-03-21T07:44:40.050Z,99.90
2019-03-21T07:47:13.047Z,99.90
2019-03-21T07:49:41.158Z,99.90
2019-03-21T07:52:10.943Z,99.90
2019-03-21T07:54:40.525Z,99.90
2019-03-21T07:57:10.154Z,99.90
2019-03-21T07:59:39.729Z,99.90
2019-03-21T08:02:09.507Z,99.90
2019-03-21T08:04:39.121Z,99.90
2019-03-21T08:07:09.016Z,99.90
2019-03-21T08:09:38.764Z,99.90
2019-03-21T08:12:08.710Z,99.90
2019-03-21T08:14:38.465Z,99.90
2019-03-21T08:17:08.153Z,99.90
2019-03-21T08:19:38.008Z,99.90
2019-03-21T08:22:07.717Z,99.90
2019-03-21T08:24:37.435Z,99.90
2019-03-21T08:27:07.053Z,99.90
2019-03-21T08:29:36.746Z,99.90
2019-03-21T08:32:06.349Z,99.90
2019-03-21T08:34:35.973Z,99.90
2019-03-21T08:37:05.707Z,99.90
2019-03-21T08:39:35.603Z,99.90
2019-03-21T08:42:05.221Z,99.90
2019-03-21T08:44:35.151Z,99.90
2019-03-21T08:47:04.765Z,99.90
2019-03-21T08:49:34.651Z,99.90
2019-03-21T08:52:04.643Z,99.90
2019-03-21T08:54:35.076Z,99.90
2019-03-21T08:57:05.033Z,99.90
2019-03-21T08:59:34.701Z,99.90
2019-03-21T09:02:04.542Z,99.90
2019-03-21T09:04:34.146Z,99.90
2019-03-21T09:07:03.871Z,99.90
2019-03-21T09:09:33.519Z,99.90
2019-03-21T09:12:03.441Z,99.90
2019-03-21T09:14:33.080Z,99.90
2019-03-21T09:17:02.778Z,97.20
2019-03-21T09:19:32.473Z,97.10
2019-03-21T09:22:02.587Z,94.00
2019-03-21T09:24:32.289Z,94.10
2019-03-21T09:27:01.950Z,95.70
2019-03-21T09:29:32.168Z,93.50
2019-03-21T09:32:01.996Z,95.10
2019-03-21T09:34:31.664Z,94.10
2019-03-21T09:37:03.947Z,94.80
2019-03-21T09:39:32.876Z,93.50
2019-03-21T09:42:02.728Z,92.30
2019-03-21T09:44:32.412Z,88.30
2019-03-21T09:47:02.284Z,90.00
2019-03-21T09:49:31.867Z,89.40
2019-03-21T09:52:01.657Z,88.50
2019-03-21T09:54:31.298Z,82.20
2019-03-21T09:57:01.117Z,84.20
2019-03-21T09:59:30.856Z,83.20
2019-03-21T10:02:00.542Z,80.00
2019-03-21T10:04:30.213Z,84.60
2019-03-21T10:06:59.996Z,78.70
2019-03-21T10:09:29.594Z,78.70
2019-03-21T10:11:59.654Z,75.60
2019-03-21T10:14:29.559Z,73.50
2019-03-21T10:16:59.169Z,83.00
2019-03-21T10:19:29.062Z,85.20
2019-03-21T10:21:58.685Z,76.40
2019-03-21T10:24:28.442Z,72.50
2019-03-21T10:26:58.026Z,74.50
2019-03-21T10:29:27.843Z,67.70
2019-03-21T10:31:57.383Z,71.60
2019-03-21T10:34:27.168Z,66.00
2019-03-21T10:36:56.838Z,67.70
2019-03-21T10:39:26.767Z,71.20
2019-03-21T10:41:56.330Z,77.80
2019-03-21T10:44:26.175Z,72.00
2019-03-21T10:46:55.768Z,67.10
2019-03-21T10:49:25.505Z,69.70
2019-03-21T10:51:55.514Z,68.70
2019-03-21T10:54:25.286Z,70.70
2019-03-21T10:56:54.980Z,67.40
2019-03-21T10:59:24.728Z,68.20
2019-03-21T11:01:54.376Z,66.80
2019-03-21T11:04:24.138Z,65.70
2019-03-21T11:06:56.886Z,66.20
2019-03-21T11:09:26.495Z,63.90
2019-03-21T11:11:56.974Z,62.60
2019-03-21T11:14:27.154Z,59.70
2019-03-21T11:16:57.212Z,60.10
2019-03-21T11:19:27.395Z,58.30
2019-03-21T11:22:05.728Z,63.10
2019-03-21T11:24:28.653Z,62.20
2019-03-21T11:26:59.542Z,66.80
2019-03-21T11:29:29.236Z,61.80
2019-03-21T11:31:58.861Z,52.50
2019-03-21T11:34:28.459Z,59.80
2019-03-21T11:36:58.059Z,54.60
2019-03-21T11:39:27.786Z,61.60
2019-03-21T11:41:57.359Z,55.40
2019-03-21T11:44:26.942Z,51.90
2019-03-21T11:46:56.540Z,49.00
2019-03-21T11:49:26.446Z,51.40
2019-03-21T11:51:56.097Z,51.10
2019-03-21T11:54:25.791Z,51.80
2019-03-21T11:56:55.392Z,49.10
2019-03-21T11:59:36.948Z,53.70
2019-03-21T12:01:56.491Z,51.10
2019-03-21T12:04:26.166Z,54.60
2019-03-21T12:06:55.893Z,53.00
2019-03-21T12:09:25.540Z,52.90
2019-03-21T12:11:55.266Z,53.40
2019-03-21T12:14:24.884Z,57.30
2019-03-21T12:16:54.593Z,54.80
2019-03-21T12:19:24.266Z,51.90
2019-03-21T12:21:54.061Z,58.10
2019-03-21T12:24:23.698Z,54.20
2019-03-21T12:26:53.504Z,54.70
2019-03-21T12:29:23.144Z,55.90
2019-03-21T12:31:52.878Z,59.00
2019-03-21T12:34:22.546Z,53.10
2019-03-21T12:36:52.342Z,57.10
2019-03-21T12:39:21.974Z,57.30
2019-03-21T12:41:51.732Z,54.70
2019-03-21T12:44:21.303Z,56.60
2019-03-21T12:46:51.105Z,52.30
2019-03-21T12:49:20.771Z,54.60
2019-03-21T12:51:50.422Z,52.20
2019-03-21T12:54:20.138Z,55.20
2019-03-21T12:56:49.811Z,60.10
2019-03-21T12:59:19.573Z,53.80
2019-03-21T13:01:49.556Z,55.50
2019-03-21T13:04:19.157Z,52.80
2019-03-21T13:06:48.835Z,52.80
2019-03-21T13:09:18.515Z,51.70
2019-03-21T13:11:48.401Z,54.10
2019-03-21T13:14:17.997Z,58.60
2019-03-21T13:16:48.685Z,51.60
2019-03-21T13:19:18.285Z,53.30
2019-03-21T13:21:48.138Z,54.50
2019-03-21T13:24:19.584Z,52.70
2019-03-21T13:26:49.088Z,52.20
2019-03-21T13:29:18.730Z,52.20
2019-03-21T13:31:48.315Z,53.50
2019-03-21T13:34:18.225Z,49.60
2019-03-21T13:36:47.818Z,54.50
2019-03-21T13:39:17.480Z,49.40
2019-03-21T13:41:47.154Z,48.30
2019-03-21T13:44:17.162Z,52.70
2019-03-21T13:46:46.855Z,53.60
2019-03-21T13:49:16.468Z,51.40
2019-03-21T13:51:46.068Z,46.90
2019-03-21T13:54:15.775Z,50.30
2019-03-21T13:56:45.393Z,54.00
2019-03-21T13:59:15.010Z,47.60
2019-03-21T14:01:44.884Z,53.20
2019-03-21T14:04:14.669Z,49.80
2019-03-21T14:06:44.337Z,50.70
2019-03-21T14:09:14.020Z,52.20
2019-03-21T14:11:43.746Z,48.40
2019-03-21T14:14:13.483Z,53.50
2019-03-21T14:16:43.148Z,57.10
2019-03-21T14:19:12.898Z,47.70
2019-03-21T14:21:42.503Z,50.50
2019-03-21T14:24:12.123Z,48.70
2019-03-21T14:26:41.739Z,53.30
2019-03-21T14:29:12.786Z,50.20
2019-03-21T14:31:42.990Z,47.00
2019-03-21T14:34:12.721Z,47.80
2019-03-21T14:36:42.444Z,47.90
2019-03-21T14:39:12.099Z,49.70
2019-03-21T14:41:42.040Z,49.60
2019-03-21T14:44:11.706Z,52.00
2019-03-21T14:46:41.363Z,52.00
2019-03-21T14:49:11.051Z,48.20
2019-03-21T14:51:40.731Z,48.60
2019-03-21T14:54:10.387Z,48.70
2019-03-21T14:56:40.109Z,50.80
2019-03-21T14:59:09.691Z,49.10
2019-03-21T15:01:40.842Z,48.10
2019-03-21T15:04:10.683Z,47.80
2019-03-21T15:06:40.320Z,48.50
2019-03-21T15:09:10.148Z,48.60
2019-03-21T15:11:39.838Z,50.80
2019-03-21T15:14:09.682Z,48.80
2019-03-21T15:16:39.361Z,54.00
2019-03-21T15:19:09.088Z,51.30
2019-03-21T15:21:38.841Z,49.50
2019-03-21T15:24:08.456Z,52.90
2019-03-21T15:26:38.113Z,52.60
2019-03-21T15:29:07.870Z,50.50
2019-03-21T15:31:37.452Z,52.10
2019-03-21T15:34:07.190Z,53.00
2019-03-21T15:36:36.770Z,53.70
2019-03-21T15:39:07.907Z,51.00
2019-03-21T15:41:38.142Z,52.50
2019-03-21T15:44:08.061Z,54.20
2019-03-21T15:46:37.705Z,51.70
2019-03-21T15:49:07.392Z,52.90
2019-03-21T15:51:37.060Z,48.40
2019-03-21T15:54:06.784Z,49.60
2019-03-21T15:56:36.396Z,51.40
2019-03-21T15:59:06.235Z,49.20
2019-03-21T16:01:35.863Z,51.30
2019-03-21T16:04:05.748Z,50.10
2019-03-21T16:06:35.460Z,49.30
2019-03-21T16:09:07.321Z,48.50
2019-03-21T16:11:36.958Z,49.90
2019-03-21T16:14:06.789Z,50.60
2019-03-21T16:16:36.415Z,51.30
2019-03-21T16:19:06.089Z,49.70
2019-03-21T16:21:35.703Z,50.20
2019-03-21T16:24:05.872Z,49.60
2019-03-21T16:26:36.705Z,50.00
2019-03-21T16:29:06.736Z,49.70
2019-03-21T16:31:36.439Z,50.80
2019-03-21T16:34:06.130Z,52.50
2019-03-21T16:36:35.774Z,53.00
2019-03-21T16:39:06.845Z,50.50
2019-03-21T16:41:36.606Z,50.70
2019-03-21T16:44:06.292Z,52.20
2019-03-21T16:46:35.935Z,53.00
2019-03-21T16:49:05.696Z,51.70
2019-03-21T16:51:35.312Z,52.50
2019-03-21T16:54:16.229Z,53.50
2019-03-21T16:56:36.404Z,52.90
2019-03-21T16:59:06.234Z,52.70
2019-03-21T17:01:36.017Z,53.00
2019-03-21T17:04:05.740Z,54.60
2019-03-21T17:06:35.575Z,54.40
2019-03-21T17:09:07.665Z,54.90
2019-03-21T17:11:37.392Z,55.10
2019-03-21T17:14:07.014Z,55.60
2019-03-21T17:16:36.689Z,54.60
2019-03-21T17:19:06.342Z,54.70
2019-03-21T17:21:36.064Z,55.50
2019-03-21T17:24:05.762Z,55.30
2019-03-21T17:26:35.451Z,56.10
2019-03-21T17:29:05.261Z,58.80
2019-03-21T17:31:34.941Z,59.60
2019-03-21T17:34:04.952Z,61.60
2019-03-21T17:36:34.637Z,62.10
2019-03-21T17:39:07.401Z,62.20
2019-03-21T17:41:37.329Z,62.90
2019-03-21T17:44:07.267Z,65.80
2019-03-21T17:46:36.950Z,64.10
2019-03-21T17:49:06.573Z,63.70
2019-03-21T17:51:36.439Z,64.00
2019-03-21T17:54:06.127Z,65.00
2019-03-21T17:56:35.803Z,64.40
2019-03-21T17:59:05.542Z,64.30
2019-03-21T18:01:35.395Z,65.10
2019-03-21T18:04:05.191Z,65.90
2019-03-21T18:06:35.111Z,67.00
2019-03-21T18:09:07.122Z,67.70
2019-03-21T18:11:36.806Z,70.30
2019-03-21T18:14:06.502Z,70.30
2019-03-21T18:16:36.155Z,71.90
2019-03-21T18:19:05.963Z,72.30
2019-03-21T18:21:35.544Z,71.80
2019-03-21T18:24:05.468Z,72.00
2019-03-21T18:26:35.312Z,71.80
2019-03-21T18:29:05.101Z,71.80
2019-03-21T18:31:34.750Z,73.90
2019-03-21T18:34:04.554Z,76.20
2019-03-21T18:36:35.237Z,76.90
2019-03-21T18:39:07.294Z,79.20
2019-03-21T18:41:36.970Z,80.70
2019-03-21T18:44:07.729Z,81.90
2019-03-21T18:46:37.337Z,83.00
2019-03-21T18:49:07.152Z,85.70
2019-03-21T18:51:36.758Z,85.70
2019-03-21T18:54:06.619Z,88.90
2019-03-21T18:56:36.402Z,89.40
2019-03-21T18:59:06.211Z,89.80
2019-03-21T19:01:35.852Z,91.80
2019-03-21T19:04:05.717Z,90.50
2019-03-21T19:06:35.564Z,92.00
2019-03-21T19:09:07.530Z,92.60
2019-03-21T19:11:37.296Z,93.00
2019-03-21T19:14:07.097Z,94.00
2019-03-21T19:16:36.713Z,93.00
2019-03-21T19:19:06.335Z,93.30
2019-03-21T19:21:36.139Z,96.00
2019-03-21T19:24:05.941Z,95.90
2019-03-21T19:26:35.623Z,96.80
2019-03-21T19:29:05.536Z,95.70
2019-03-21T19:31:35.264Z,96.00
2019-03-21T19:34:04.939Z,95.10
2019-03-21T19:36:36.479Z,96.00
2019-03-21T19:39:08.258Z,96.40
2019-03-21T19:41:37.892Z,96.20
2019-03-21T19:44:07.698Z,97.00
2019-03-21T19:46:37.410Z,98.60
2019-03-21T19:49:07.141Z,97.80
2019-03-21T19:51:36.763Z,98.40
2019-03-21T19:54:06.508Z,97.40
2019-03-21T19:56:36.114Z,98.20
2019-03-21T19:59:05.928Z,99.90
2019-03-21T20:01:35.504Z,99.10
2019-03-21T20:04:05.368Z,99.00
2019-03-21T20:06:34.989Z,99.50
2019-03-21T20:09:06.568Z,99.90
2019-03-21T20:11:36.220Z,99.20
2019-03-21T20:14:06.119Z,99.30
2019-03-21T20:16:36.386Z,99.90
2019-03-21T20:19:06.216Z,99.90
2019-03-21T20:21:47.111Z,99.90
2019-03-21T20:24:07.492Z,99.90
2019-03-21T20:26:37.105Z,99.90
2019-03-21T20:29:06.815Z,99.90
2019-03-21T20:31:36.537Z,99.90
2019-03-21T20:34:06.444Z,99.90
2019-03-21T20:36:36.285Z,99.90
2019-03-21T20:39:08.055Z,99.90
2019-03-21T20:41:37.715Z,99.90
2019-03-21T20:44:15.063Z,99.90
2019-03-21T20:46:38.959Z,99.90
2019-03-21T20:49:08.661Z,99.90
2019-03-21T20:51:38.447Z,99.90
2019-03-21T20:54:08.259Z,99.90
2019-03-21T20:56:37.893Z,99.90
2019-03-21T20:59:07.712Z,99.90
2019-03-21T21:01:37.431Z,99.90
2019-03-21T21:04:07.092Z,99.90
2019-03-21T21:06:36.918Z,99.90
2019-03-21T21:09:07.925Z,99.90
2019-03-21T21:11:37.842Z,99.90
2019-03-21T21:14:07.611Z,99.90
2019-03-21T21:16:37.491Z,99.90
2019-03-21T21:19:07.393Z,99.90
2019-03-21T21:21:37.155Z,99.90
2019-03-21T21:24:06.859Z,99.90
2019-03-21T21:26:36.648Z,99.90
2019-03-21T21:29:06.267Z,99.90
2019-03-21T21:31:35.980Z,99.90
2019-03-21T21:34:05.742Z,99.90
2019-03-21T21:36:35.415Z,99.90
2019-03-21T21:39:06.968Z,99.90
2019-03-21T21:41:36.624Z,99.90
2019-03-21T21:44:06.461Z,99.90
2019-03-21T21:46:36.244Z,99.90
2019-03-21T21:49:05.890Z,99.90
2019-03-21T21:51:35.523Z,99.90
2019-03-21T21:54:05.272Z,99.90
2019-03-21T21:56:34.956Z,99.90
2019-03-21T21:59:04.705Z,99.90
2019-03-21T22:01:34.427Z,99.90
2019-03-21T22:04:05.196Z,99.90
2019-03-21T22:06:35.013Z,99.90
2019-03-21T22:09:06.736Z,99.90
2019-03-21T22:11:36.323Z,99.90
2019-03-21T22:14:05.995Z,99.90
2019-03-21T22:16:35.679Z,99.90
2019-03-21T22:19:05.459Z,99.90
2019-03-21T22:21:35.104Z,99.90
2019-03-21T22:24:04.808Z,99.90
2019-03-21T22:26:34.389Z,99.90
2019-03-21T22:29:05.245Z,99.90
2019-03-21T22:31:34.963Z,99.90
2019-03-21T22:34:04.885Z,99.90
2019-03-21T22:36:34.517Z,99.90
2019-03-21T22:39:05.965Z,99.90
2019-03-21T22:41:35.585Z,99.90
2019-03-21T22:44:06.288Z,99.90
2019-03-21T22:46:35.907Z,99.90
2019-03-21T22:49:05.610Z,99.90
2019-03-21T22:51:35.290Z,99.90
2019-03-21T22:54:05.191Z,99.90
2019-03-21T22:56:41.097Z,99.90
2019-03-21T22:59:06.222Z,99.90
2019-03-21T23:01:55.123Z,99.90
2019-03-21T23:04:36.536Z,99.90
2019-03-21T23:07:07.225Z,99.90
2019-03-21T23:09:36.910Z,99.90
2019-03-21T23:12:06.780Z,99.90
2019-03-21T23:14:36.436Z,99.90
2019-03-21T23:17:06.326Z,99.90
2019-03-21T23:19:36.028Z,99.90
2019-03-21T23:22:05.796Z,99.90
2019-03-21T23:24:35.699Z,99.90
2019-03-21T23:27:06.078Z,99.90
2019-03-21T23:29:35.658Z,99.90
2019-03-21T23:32:05.827Z,99.90
2019-03-21T23:34:35.452Z,99.90
2019-03-21T23:37:05.217Z,99.90
2019-03-21T23:39:35.005Z,99.90
2019-03-21T23:42:04.847Z,99.90
2019-03-21T23:44:34.648Z,99.90
2019-03-21T23:47:04.505Z,99.90
2019-03-21T23:49:34.295Z,99.90
2019-03-21T23:52:04.014Z,99.90
2019-03-21T23:54:33.705Z,99.90
2019-03-21T23:57:04.706Z,99.90
2019-03-21T23:59:34.749Z,99.90
